sensor_id;sensor_type;location;lat;lon;timestamp;P1;durP1;ratioP1;P2;durP2;ratioP2
21166;SDS011;10741;52.272;9.580;2022-08-19T00:00:25;7.70;;;6.83;;
21166;SDS011;10741;52.272;9.580;2022-08-19T00:02:52;8.97;;;7.93;;
21166;SDS011;10741;52.272;9.580;2022-08-19T00:05:18;9.23;;;7.63;;
21166;SDS011;10741;52.272;9.580;2022-08-19T00:07:45;12.67;;;6.83;;
21166;SDS011;10741;52.272;9.580;2022-08-19T00:10:12;12.07;;;8.13;;
21166;SDS011;10741;52.272;9.580;2022-08-19T00:12:40;9.73;;;7.27;;
21166;SDS011;10741;52.272;9.580;2022-08-19T00:15:06;8.73;;;7.17;;
21166;SDS011;10741;52.272;9.580;2022-08-19T00:17:40;11.53;;;8.30;;
21166;SDS011;10741;52.272;9.580;2022-08-19T00:20:07;8.03;;;7.23;;
21166;SDS011;10741;52.272;9.580;2022-08-19T00:22:36;9.40;;;7.67;;
21166;SDS011;10741;52.272;9.580;2022-08-19T00:25:03;9.07;;;8.17;;
21166;SDS011;10741;52.272;9.580;2022-08-19T00:27:33;8.77;;;7.87;;
21166;SDS011;10741;52.272;9.580;2022-08-19T00:29:59;9.60;;;7.97;;
21166;SDS011;10741;52.272;9.580;2022-08-19T00:32:28;9.77;;;7.80;;
21166;SDS011;10741;52.272;9.580;2022-08-19T00:34:54;9.37;;;8.47;;
21166;SDS011;10741;52.272;9.580;2022-08-19T00:37:21;9.37;;;8.00;;
21166;SDS011;10741;52.272;9.580;2022-08-19T00:39:48;8.93;;;8.03;;
21166;SDS011;10741;52.272;9.580;2022-08-19T00:42:15;9.83;;;8.17;;
21166;SDS011;10741;52.272;9.580;2022-08-19T00:44:42;10.50;;;7.77;;
21166;SDS011;10741;52.272;9.580;2022-08-19T00:47:08;8.80;;;7.90;;
21166;SDS011;10741;52.272;9.580;2022-08-19T00:49:35;9.33;;;8.33;;
21166;SDS011;10741;52.272;9.580;2022-08-19T00:52:11;9.10;;;8.20;;
21166;SDS011;10741;52.272;9.580;2022-08-19T00:54:40;10.13;;;8.83;;
21166;SDS011;10741;52.272;9.580;2022-08-19T00:57:08;9.77;;;8.00;;
21166;SDS011;10741;52.272;9.580;2022-08-19T00:59:37;9.17;;;8.27;;
21166;SDS011;10741;52.272;9.580;2022-08-19T01:02:05;10.90;;;8.53;;
21166;SDS011;10741;52.272;9.580;2022-08-19T01:04:31;9.20;;;7.93;;
21166;SDS011;10741;52.272;9.580;2022-08-19T01:06:57;9.83;;;8.10;;
21166;SDS011;10741;52.272;9.580;2022-08-19T01:09:24;10.20;;;9.13;;
21166;SDS011;10741;52.272;9.580;2022-08-19T01:11:50;10.60;;;9.00;;
21166;SDS011;10741;52.272;9.580;2022-08-19T01:14:16;10.03;;;8.27;;
21166;SDS011;10741;52.272;9.580;2022-08-19T01:16:43;10.23;;;8.63;;
21166;SDS011;10741;52.272;9.580;2022-08-19T01:19:54;10.93;;;9.63;;
21166;SDS011;10741;52.272;9.580;2022-08-19T01:22:17;10.83;;;9.00;;
21166;SDS011;10741;52.272;9.580;2022-08-19T01:24:48;10.77;;;9.03;;
21166;SDS011;10741;52.272;9.580;2022-08-19T01:27:14;11.07;;;9.90;;
21166;SDS011;10741;52.272;9.580;2022-08-19T01:29:41;11.63;;;9.90;;
21166;SDS011;10741;52.272;9.580;2022-08-19T01:32:08;11.63;;;10.43;;
21166;SDS011;10741;52.272;9.580;2022-08-19T01:34:37;13.67;;;10.30;;
21166;SDS011;10741;52.272;9.580;2022-08-19T01:37:07;11.23;;;10.07;;
21166;SDS011;10741;52.272;9.580;2022-08-19T01:39:36;11.90;;;9.87;;
21166;SDS011;10741;52.272;9.580;2022-08-19T01:42:03;10.70;;;9.57;;
21166;SDS011;10741;52.272;9.580;2022-08-19T01:44:30;11.07;;;9.87;;
21166;SDS011;10741;52.272;9.580;2022-08-19T01:46:56;13.20;;;10.37;;
21166;SDS011;10741;52.272;9.580;2022-08-19T01:49:22;10.53;;;9.43;;
21166;SDS011;10741;52.272;9.580;2022-08-19T01:51:50;9.37;;;8.47;;
21166;SDS011;10741;52.272;9.580;2022-08-19T01:54:17;11.50;;;9.87;;
21166;SDS011;10741;52.272;9.580;2022-08-19T01:56:43;14.00;;;9.43;;
21166;SDS011;10741;52.272;9.580;2022-08-19T01:59:10;10.50;;;9.23;;
21166;SDS011;10741;52.272;9.580;2022-08-19T02:01:39;10.23;;;8.63;;
21166;SDS011;10741;52.272;9.580;2022-08-19T02:04:05;9.23;;;8.30;;
21166;SDS011;10741;52.272;9.580;2022-08-19T02:06:31;10.67;;;9.40;;
21166;SDS011;10741;52.272;9.580;2022-08-19T02:08:58;11.30;;;8.93;;
21166;SDS011;10741;52.272;9.580;2022-08-19T02:11:25;10.33;;;9.00;;
21166;SDS011;10741;52.272;9.580;2022-08-19T02:13:59;14.93;;;9.00;;
21166;SDS011;10741;52.272;9.580;2022-08-19T02:16:29;12.53;;;9.70;;
21166;SDS011;10741;52.272;9.580;2022-08-19T02:18:55;11.03;;;9.00;;
21166;SDS011;10741;52.272;9.580;2022-08-19T02:21:22;12.23;;;9.43;;
21166;SDS011;10741;52.272;9.580;2022-08-19T02:23:49;10.37;;;8.70;;
21166;SDS011;10741;52.272;9.580;2022-08-19T02:26:15;14.60;;;10.17;;
21166;SDS011;10741;52.272;9.580;2022-08-19T02:28:42;11.87;;;9.10;;
21166;SDS011;10741;52.272;9.580;2022-08-19T02:31:09;11.03;;;9.40;;
21166;SDS011;10741;52.272;9.580;2022-08-19T02:33:40;10.27;;;8.87;;
21166;SDS011;10741;52.272;9.580;2022-08-19T02:36:07;10.60;;;9.40;;
21166;SDS011;10741;52.272;9.580;2022-08-19T02:38:33;11.97;;;8.93;;
21166;SDS011;10741;52.272;9.580;2022-08-19T02:41:04;11.63;;;9.17;;
21166;SDS011;10741;52.272;9.580;2022-08-19T02:43:32;11.20;;;9.13;;
21166;SDS011;10741;52.272;9.580;2022-08-19T02:46:10;11.23;;;8.27;;
21166;SDS011;10741;52.272;9.580;2022-08-19T02:48:43;10.80;;;8.40;;
21166;SDS011;10741;52.272;9.580;2022-08-19T02:51:09;13.97;;;9.90;;
21166;SDS011;10741;52.272;9.580;2022-08-19T02:53:44;11.67;;;8.67;;
21166;SDS011;10741;52.272;9.580;2022-08-19T02:56:10;13.80;;;9.23;;
21166;SDS011;10741;52.272;9.580;2022-08-19T02:58:36;12.83;;;9.40;;
21166;SDS011;10741;52.272;9.580;2022-08-19T03:01:02;10.47;;;8.57;;
21166;SDS011;10741;52.272;9.580;2022-08-19T03:03:27;10.63;;;8.47;;
21166;SDS011;10741;52.272;9.580;2022-08-19T03:06:05;12.03;;;9.80;;
21166;SDS011;10741;52.272;9.580;2022-08-19T03:08:32;11.30;;;9.53;;
21166;SDS011;10741;52.272;9.580;2022-08-19T03:10:58;11.33;;;8.90;;
21166;SDS011;10741;52.272;9.580;2022-08-19T03:13:24;12.63;;;10.03;;
21166;SDS011;10741;52.272;9.580;2022-08-19T03:15:50;11.67;;;9.93;;
21166;SDS011;10741;52.272;9.580;2022-08-19T03:18:16;11.70;;;9.07;;
21166;SDS011;10741;52.272;9.580;2022-08-19T03:20:46;9.83;;;7.87;;
21166;SDS011;10741;52.272;9.580;2022-08-19T03:23:13;13.47;;;9.17;;
21166;SDS011;10741;52.272;9.580;2022-08-19T03:25:41;11.43;;;9.10;;
21166;SDS011;10741;52.272;9.580;2022-08-19T03:28:10;12.17;;;8.90;;
21166;SDS011;10741;52.272;9.580;2022-08-19T03:30:37;12.53;;;8.93;;
21166;SDS011;10741;52.272;9.580;2022-08-19T03:33:08;12.60;;;9.30;;
21166;SDS011;10741;52.272;9.580;2022-08-19T03:35:34;11.73;;;8.60;;
21166;SDS011;10741;52.272;9.580;2022-08-19T03:38:04;12.17;;;9.03;;
21166;SDS011;10741;52.272;9.580;2022-08-19T03:40:31;13.13;;;8.57;;
21166;SDS011;10741;52.272;9.580;2022-08-19T03:42:59;9.83;;;8.47;;
21166;SDS011;10741;52.272;9.580;2022-08-19T03:45:25;14.20;;;8.33;;
21166;SDS011;10741;52.272;9.580;2022-08-19T03:47:52;10.83;;;8.60;;
21166;SDS011;10741;52.272;9.580;2022-08-19T03:50:18;12.43;;;7.97;;
21166;SDS011;10741;52.272;9.580;2022-08-19T03:52:48;14.03;;;8.70;;
21166;SDS011;10741;52.272;9.580;2022-08-19T03:55:17;9.60;;;7.93;;
21166;SDS011;10741;52.272;9.580;2022-08-19T03:57:43;9.93;;;7.37;;
21166;SDS011;10741;52.272;9.580;2022-08-19T04:00:11;8.80;;;7.90;;
21166;SDS011;10741;52.272;9.580;2022-08-19T04:02:37;9.10;;;7.90;;
21166;SDS011;10741;52.272;9.580;2022-08-19T04:05:03;11.90;;;9.40;;
21166;SDS011;10741;52.272;9.580;2022-08-19T04:07:30;9.60;;;8.63;;
21166;SDS011;10741;52.272;9.580;2022-08-19T04:09:55;12.80;;;8.37;;
21166;SDS011;10741;52.272;9.580;2022-08-19T04:12:21;11.67;;;8.13;;
21166;SDS011;10741;52.272;9.580;2022-08-19T04:14:47;8.30;;;7.50;;
21166;SDS011;10741;52.272;9.580;2022-08-19T04:17:12;9.67;;;7.90;;
21166;SDS011;10741;52.272;9.580;2022-08-19T04:19:39;10.27;;;8.67;;
21166;SDS011;10741;52.272;9.580;2022-08-19T04:22:05;9.23;;;8.27;;
21166;SDS011;10741;52.272;9.580;2022-08-19T04:24:32;10.40;;;8.83;;
21166;SDS011;10741;52.272;9.580;2022-08-19T04:27:01;13.17;;;8.80;;
21166;SDS011;10741;52.272;9.580;2022-08-19T04:29:27;10.30;;;7.80;;
21166;SDS011;10741;52.272;9.580;2022-08-19T04:31:55;10.87;;;9.43;;
21166;SDS011;10741;52.272;9.580;2022-08-19T04:34:22;13.13;;;9.83;;
21166;SDS011;10741;52.272;9.580;2022-08-19T04:36:49;11.33;;;8.63;;
21166;SDS011;10741;52.272;9.580;2022-08-19T04:39:17;10.70;;;8.90;;
21166;SDS011;10741;52.272;9.580;2022-08-19T04:41:45;12.13;;;8.93;;
21166;SDS011;10741;52.272;9.580;2022-08-19T04:44:34;12.70;;;9.70;;
21166;SDS011;10741;52.272;9.580;2022-08-19T04:47:00;11.60;;;8.77;;
21166;SDS011;10741;52.272;9.580;2022-08-19T04:49:30;10.23;;;8.60;;
21166;SDS011;10741;52.272;9.580;2022-08-19T04:51:56;13.33;;;9.80;;
21166;SDS011;10741;52.272;9.580;2022-08-19T04:54:23;9.37;;;8.33;;
21166;SDS011;10741;52.272;9.580;2022-08-19T04:56:50;10.50;;;8.57;;
21166;SDS011;10741;52.272;9.580;2022-08-19T04:59:17;9.37;;;8.40;;
21166;SDS011;10741;52.272;9.580;2022-08-19T05:01:45;9.67;;;8.10;;
21166;SDS011;10741;52.272;9.580;2022-08-19T05:04:19;13.10;;;9.10;;
21166;SDS011;10741;52.272;9.580;2022-08-19T05:06:46;10.13;;;7.57;;
21166;SDS011;10741;52.272;9.580;2022-08-19T05:09:13;9.67;;;7.77;;
21166;SDS011;10741;52.272;9.580;2022-08-19T05:11:40;9.73;;;8.03;;
21166;SDS011;10741;52.272;9.580;2022-08-19T05:14:06;10.10;;;7.50;;
21166;SDS011;10741;52.272;9.580;2022-08-19T05:16:33;9.30;;;7.10;;
21166;SDS011;10741;52.272;9.580;2022-08-19T05:18:58;10.23;;;7.73;;
21166;SDS011;10741;52.272;9.580;2022-08-19T05:21:43;9.23;;;7.80;;
21166;SDS011;10741;52.272;9.580;2022-08-19T05:24:28;8.23;;;7.43;;
21166;SDS011;10741;52.272;9.580;2022-08-19T05:26:59;9.97;;;7.63;;
21166;SDS011;10741;52.272;9.580;2022-08-19T05:29:28;11.50;;;8.47;;
21166;SDS011;10741;52.272;9.580;2022-08-19T05:31:56;11.13;;;7.80;;
21166;SDS011;10741;52.272;9.580;2022-08-19T05:34:24;8.20;;;6.97;;
21166;SDS011;10741;52.272;9.580;2022-08-19T05:36:52;10.00;;;8.30;;
21166;SDS011;10741;52.272;9.580;2022-08-19T05:39:22;8.03;;;7.23;;
21166;SDS011;10741;52.272;9.580;2022-08-19T05:41:51;13.00;;;8.77;;
21166;SDS011;10741;52.272;9.580;2022-08-19T05:44:19;10.87;;;8.93;;
21166;SDS011;10741;52.272;9.580;2022-08-19T05:46:47;10.43;;;8.30;;
21166;SDS011;10741;52.272;9.580;2022-08-19T05:49:13;12.57;;;8.80;;
21166;SDS011;10741;52.272;9.580;2022-08-19T05:51:40;10.70;;;9.60;;
21166;SDS011;10741;52.272;9.580;2022-08-19T05:54:07;10.07;;;9.00;;
21166;SDS011;10741;52.272;9.580;2022-08-19T05:56:36;10.90;;;9.90;;
21166;SDS011;10741;52.272;9.580;2022-08-19T05:59:03;11.50;;;9.20;;
21166;SDS011;10741;52.272;9.580;2022-08-19T06:01:35;10.00;;;9.10;;
21166;SDS011;10741;52.272;9.580;2022-08-19T06:04:03;12.07;;;9.03;;
21166;SDS011;10741;52.272;9.580;2022-08-19T06:06:30;13.77;;;10.50;;
21166;SDS011;10741;52.272;9.580;2022-08-19T06:08:56;12.67;;;10.33;;
21166;SDS011;10741;52.272;9.580;2022-08-19T06:11:31;11.47;;;9.33;;
21166;SDS011;10741;52.272;9.580;2022-08-19T06:14:00;12.50;;;10.63;;
21166;SDS011;10741;52.272;9.580;2022-08-19T06:16:30;16.13;;;12.00;;
21166;SDS011;10741;52.272;9.580;2022-08-19T06:19:03;15.20;;;12.03;;
21166;SDS011;10741;52.272;9.580;2022-08-19T06:21:33;15.50;;;12.23;;
21166;SDS011;10741;52.272;9.580;2022-08-19T06:24:02;16.07;;;11.27;;
21166;SDS011;10741;52.272;9.580;2022-08-19T06:26:30;16.87;;;12.87;;
21166;SDS011;10741;52.272;9.580;2022-08-19T06:28:56;17.00;;;11.90;;
21166;SDS011;10741;52.272;9.580;2022-08-19T06:31:24;16.47;;;13.87;;
21166;SDS011;10741;52.272;9.580;2022-08-19T06:33:51;15.53;;;13.40;;
21166;SDS011;10741;52.272;9.580;2022-08-19T06:36:21;17.23;;;13.67;;
21166;SDS011;10741;52.272;9.580;2022-08-19T06:39:08;17.90;;;13.97;;
21166;SDS011;10741;52.272;9.580;2022-08-19T06:41:37;16.90;;;14.73;;
21166;SDS011;10741;52.272;9.580;2022-08-19T06:44:05;18.07;;;14.23;;
21166;SDS011;10741;52.272;9.580;2022-08-19T06:46:32;20.30;;;14.47;;
21166;SDS011;10741;52.272;9.580;2022-08-19T06:48:58;18.87;;;15.57;;
21166;SDS011;10741;52.272;9.580;2022-08-19T06:51:24;19.57;;;14.17;;
21166;SDS011;10741;52.272;9.580;2022-08-19T06:53:51;16.47;;;13.43;;
21166;SDS011;10741;52.272;9.580;2022-08-19T06:56:19;13.33;;;11.93;;
21166;SDS011;10741;52.272;9.580;2022-08-19T06:58:52;16.13;;;12.37;;
21166;SDS011;10741;52.272;9.580;2022-08-19T07:01:28;17.13;;;12.67;;
21166;SDS011;10741;52.272;9.580;2022-08-19T07:03:55;14.43;;;12.07;;
21166;SDS011;10741;52.272;9.580;2022-08-19T07:06:21;14.67;;;12.47;;
21166;SDS011;10741;52.272;9.580;2022-08-19T07:08:47;17.10;;;12.30;;
21166;SDS011;10741;52.272;9.580;2022-08-19T07:11:14;12.40;;;10.57;;
21166;SDS011;10741;52.272;9.580;2022-08-19T07:13:42;12.30;;;10.67;;
21166;SDS011;10741;52.272;9.580;2022-08-19T07:16:11;15.33;;;12.00;;
21166;SDS011;10741;52.272;9.580;2022-08-19T07:18:39;14.03;;;9.97;;
21166;SDS011;10741;52.272;9.580;2022-08-19T07:21:13;12.00;;;10.67;;
21166;SDS011;10741;52.272;9.580;2022-08-19T07:23:41;13.00;;;11.40;;
21166;SDS011;10741;52.272;9.580;2022-08-19T07:26:18;12.27;;;11.03;;
21166;SDS011;10741;52.272;9.580;2022-08-19T07:28:50;12.67;;;9.80;;
21166;SDS011;10741;52.272;9.580;2022-08-19T07:31:17;13.23;;;11.00;;
21166;SDS011;10741;52.272;9.580;2022-08-19T07:33:46;13.10;;;10.97;;
21166;SDS011;10741;52.272;9.580;2022-08-19T07:36:14;13.27;;;11.40;;
21166;SDS011;10741;52.272;9.580;2022-08-19T07:38:43;14.10;;;11.03;;
21166;SDS011;10741;52.272;9.580;2022-08-19T07:41:18;12.77;;;10.63;;
21166;SDS011;10741;52.272;9.580;2022-08-19T07:43:47;10.93;;;9.83;;
21166;SDS011;10741;52.272;9.580;2022-08-19T07:46:14;14.33;;;10.80;;
21166;SDS011;10741;52.272;9.580;2022-08-19T07:48:43;11.80;;;10.53;;
21166;SDS011;10741;52.272;9.580;2022-08-19T07:51:14;11.23;;;9.90;;
21166;SDS011;10741;52.272;9.580;2022-08-19T07:53:43;14.33;;;11.43;;
21166;SDS011;10741;52.272;9.580;2022-08-19T07:56:11;14.23;;;12.47;;
21166;SDS011;10741;52.272;9.580;2022-08-19T07:58:38;14.93;;;12.73;;
21166;SDS011;10741;52.272;9.580;2022-08-19T08:01:07;17.17;;;12.93;;
21166;SDS011;10741;52.272;9.580;2022-08-19T08:03:35;13.77;;;11.67;;
21166;SDS011;10741;52.272;9.580;2022-08-19T08:06:20;13.13;;;11.00;;
21166;SDS011;10741;52.272;9.580;2022-08-19T08:09:05;13.33;;;11.93;;
21166;SDS011;10741;52.272;9.580;2022-08-19T08:11:42;12.80;;;11.27;;
21166;SDS011;10741;52.272;9.580;2022-08-19T08:14:26;12.33;;;11.03;;
21166;SDS011;10741;52.272;9.580;2022-08-19T08:16:58;12.57;;;10.20;;
21166;SDS011;10741;52.272;9.580;2022-08-19T08:19:24;12.87;;;10.27;;
21166;SDS011;10741;52.272;9.580;2022-08-19T08:21:52;13.40;;;9.73;;
21166;SDS011;10741;52.272;9.580;2022-08-19T08:24:19;11.57;;;10.47;;
21166;SDS011;10741;52.272;9.580;2022-08-19T08:26:45;13.70;;;10.47;;
21166;SDS011;10741;52.272;9.580;2022-08-19T08:29:12;11.27;;;9.53;;
21166;SDS011;10741;52.272;9.580;2022-08-19T08:31:41;8.33;;;7.17;;
21166;SDS011;10741;52.272;9.580;2022-08-19T08:34:09;8.53;;;6.50;;
21166;SDS011;10741;52.272;9.580;2022-08-19T08:36:37;12.63;;;6.60;;
21166;SDS011;10741;52.272;9.580;2022-08-19T08:39:07;9.07;;;6.33;;
21166;SDS011;10741;52.272;9.580;2022-08-19T08:44:06;10.07;;;5.40;;
21166;SDS011;10741;52.272;9.580;2022-08-19T08:46:41;6.40;;;4.97;;
21166;SDS011;10741;52.272;9.580;2022-08-19T08:49:19;8.17;;;5.63;;
21166;SDS011;10741;52.272;9.580;2022-08-19T08:52:00;6.37;;;4.67;;
21166;SDS011;10741;52.272;9.580;2022-08-19T08:54:35;5.60;;;4.40;;
21166;SDS011;10741;52.272;9.580;2022-08-19T08:57:12;7.23;;;5.00;;
21166;SDS011;10741;52.272;9.580;2022-08-19T08:59:45;8.00;;;4.17;;
21166;SDS011;10741;52.272;9.580;2022-08-19T09:02:16;6.93;;;4.37;;
21166;SDS011;10741;52.272;9.580;2022-08-19T09:04:42;7.10;;;5.03;;
21166;SDS011;10741;52.272;9.580;2022-08-19T09:09:50;7.20;;;5.30;;
21166;SDS011;10741;52.272;9.580;2022-08-19T09:12:20;5.67;;;5.10;;
21166;SDS011;10741;52.272;9.580;2022-08-19T09:15:03;5.47;;;4.83;;
21166;SDS011;10741;52.272;9.580;2022-08-19T09:17:33;6.57;;;4.70;;
21166;SDS011;10741;52.272;9.580;2022-08-19T09:20:16;6.87;;;4.67;;
21166;SDS011;10741;52.272;9.580;2022-08-19T09:22:44;6.37;;;4.60;;
21166;SDS011;10741;52.272;9.580;2022-08-19T09:25:12;6.20;;;4.80;;
21166;SDS011;10741;52.272;9.580;2022-08-19T09:27:41;7.60;;;4.17;;
21166;SDS011;10741;52.272;9.580;2022-08-19T09:30:08;5.83;;;3.70;;
21166;SDS011;10741;52.272;9.580;2022-08-19T09:32:36;4.63;;;4.10;;
21166;SDS011;10741;52.272;9.580;2022-08-19T09:35:04;4.73;;;4.07;;
21166;SDS011;10741;52.272;9.580;2022-08-19T09:37:31;4.93;;;3.70;;
21166;SDS011;10741;52.272;9.580;2022-08-19T09:39:56;6.10;;;3.50;;
21166;SDS011;10741;52.272;9.580;2022-08-19T09:42:22;5.53;;;3.60;;
21166;SDS011;10741;52.272;9.580;2022-08-19T09:44:48;4.37;;;2.70;;
21166;SDS011;10741;52.272;9.580;2022-08-19T09:47:14;3.33;;;2.70;;
21166;SDS011;10741;52.272;9.580;2022-08-19T09:49:40;5.20;;;2.70;;
21166;SDS011;10741;52.272;9.580;2022-08-19T09:52:10;3.83;;;2.80;;
21166;SDS011;10741;52.272;9.580;2022-08-19T09:54:37;3.27;;;2.80;;
21166;SDS011;10741;52.272;9.580;2022-08-19T09:57:03;3.00;;;2.57;;
21166;SDS011;10741;52.272;9.580;2022-08-19T09:59:29;2.43;;;2.23;;
21166;SDS011;10741;52.272;9.580;2022-08-19T10:01:55;2.93;;;2.40;;
21166;SDS011;10741;52.272;9.580;2022-08-19T10:04:30;3.90;;;2.73;;
21166;SDS011;10741;52.272;9.580;2022-08-19T10:07:15;4.40;;;2.73;;
21166;SDS011;10741;52.272;9.580;2022-08-19T10:09:41;2.10;;;2.00;;
21166;SDS011;10741;52.272;9.580;2022-08-19T10:12:07;2.40;;;2.20;;
21166;SDS011;10741;52.272;9.580;2022-08-19T10:14:34;2.40;;;2.00;;
21166;SDS011;10741;52.272;9.580;2022-08-19T10:17:00;2.67;;;2.20;;
21166;SDS011;10741;52.272;9.580;2022-08-19T10:19:27;2.33;;;2.07;;
21166;SDS011;10741;52.272;9.580;2022-08-19T10:21:57;2.20;;;1.93;;
21166;SDS011;10741;52.272;9.580;2022-08-19T10:24:29;6.47;;;2.57;;
21166;SDS011;10741;52.272;9.580;2022-08-19T10:26:55;3.00;;;2.50;;
21166;SDS011;10741;52.272;9.580;2022-08-19T10:29:21;2.77;;;2.30;;
21166;SDS011;10741;52.272;9.580;2022-08-19T10:31:47;4.37;;;2.67;;
21166;SDS011;10741;52.272;9.580;2022-08-19T10:34:13;3.97;;;2.60;;
21166;SDS011;10741;52.272;9.580;2022-08-19T10:36:39;3.70;;;2.37;;
21166;SDS011;10741;52.272;9.580;2022-08-19T10:39:07;3.43;;;2.27;;
21166;SDS011;10741;52.272;9.580;2022-08-19T10:41:35;3.30;;;2.50;;
21166;SDS011;10741;52.272;9.580;2022-08-19T10:44:06;6.53;;;2.47;;
21166;SDS011;10741;52.272;9.580;2022-08-19T10:46:35;3.43;;;2.43;;
21166;SDS011;10741;52.272;9.580;2022-08-19T10:49:04;5.43;;;2.53;;
21166;SDS011;10741;52.272;9.580;2022-08-19T10:51:31;4.03;;;2.10;;
21166;SDS011;10741;52.272;9.580;2022-08-19T10:54:16;4.63;;;2.20;;
21166;SDS011;10741;52.272;9.580;2022-08-19T10:56:42;4.10;;;1.70;;
21166;SDS011;10741;52.272;9.580;2022-08-19T10:59:21;2.00;;;1.90;;
21166;SDS011;10741;52.272;9.580;2022-08-19T11:01:49;2.17;;;1.93;;
21166;SDS011;10741;52.272;9.580;2022-08-19T11:04:16;1.73;;;1.63;;
21166;SDS011;10741;52.272;9.580;2022-08-19T11:06:44;3.47;;;2.00;;
21166;SDS011;10741;52.272;9.580;2022-08-19T11:09:12;2.40;;;1.43;;
21166;SDS011;10741;52.272;9.580;2022-08-19T11:11:40;3.83;;;2.07;;
21166;SDS011;10741;52.272;9.580;2022-08-19T11:14:13;2.20;;;1.90;;
21166;SDS011;10741;52.272;9.580;2022-08-19T11:16:41;4.43;;;1.80;;
21166;SDS011;10741;52.272;9.580;2022-08-19T11:19:08;2.07;;;1.97;;
21166;SDS011;10741;52.272;9.580;2022-08-19T11:21:37;2.03;;;1.90;;
21166;SDS011;10741;52.272;9.580;2022-08-19T11:24:11;2.53;;;2.07;;
21166;SDS011;10741;52.272;9.580;2022-08-19T11:26:45;3.20;;;2.00;;
21166;SDS011;10741;52.272;9.580;2022-08-19T11:29:13;3.77;;;2.53;;
21166;SDS011;10741;52.272;9.580;2022-08-19T11:31:40;1.97;;;1.67;;
21166;SDS011;10741;52.272;9.580;2022-08-19T11:34:09;1.87;;;1.73;;
21166;SDS011;10741;52.272;9.580;2022-08-19T11:36:38;1.80;;;1.40;;
21166;SDS011;10741;52.272;9.580;2022-08-19T11:39:07;1.93;;;1.50;;
21166;SDS011;10741;52.272;9.580;2022-08-19T11:41:35;3.87;;;2.20;;
21166;SDS011;10741;52.272;9.580;2022-08-19T11:44:01;2.40;;;2.03;;
21166;SDS011;10741;52.272;9.580;2022-08-19T11:46:29;3.00;;;1.60;;
21166;SDS011;10741;52.272;9.580;2022-08-19T11:48:56;2.87;;;1.77;;
21166;SDS011;10741;52.272;9.580;2022-08-19T11:51:24;1.77;;;1.67;;
21166;SDS011;10741;52.272;9.580;2022-08-19T11:53:51;3.50;;;1.97;;
21166;SDS011;10741;52.272;9.580;2022-08-19T11:56:18;2.83;;;1.90;;
21166;SDS011;10741;52.272;9.580;2022-08-19T11:58:45;2.40;;;1.57;;
21166;SDS011;10741;52.272;9.580;2022-08-19T12:01:12;2.17;;;1.97;;
21166;SDS011;10741;52.272;9.580;2022-08-19T12:03:41;2.43;;;1.70;;
21166;SDS011;10741;52.272;9.580;2022-08-19T12:06:14;3.90;;;2.00;;
21166;SDS011;10741;52.272;9.580;2022-08-19T12:08:42;3.10;;;1.73;;
21166;SDS011;10741;52.272;9.580;2022-08-19T12:11:09;1.87;;;1.53;;
21166;SDS011;10741;52.272;9.580;2022-08-19T12:13:36;4.30;;;1.90;;
21166;SDS011;10741;52.272;9.580;2022-08-19T12:16:10;3.33;;;1.40;;
21166;SDS011;10741;52.272;9.580;2022-08-19T12:18:38;2.20;;;1.57;;
21166;SDS011;10741;52.272;9.580;2022-08-19T12:21:08;2.93;;;1.60;;
21166;SDS011;10741;52.272;9.580;2022-08-19T12:23:36;3.60;;;1.60;;
21166;SDS011;10741;52.272;9.580;2022-08-19T12:26:02;3.57;;;2.10;;
21166;SDS011;10741;52.272;9.580;2022-08-19T12:28:28;5.17;;;1.57;;
21166;SDS011;10741;52.272;9.580;2022-08-19T12:30:55;2.23;;;2.03;;
21166;SDS011;10741;52.272;9.580;2022-08-19T12:33:22;2.80;;;1.83;;
21166;SDS011;10741;52.272;9.580;2022-08-19T12:35:51;1.87;;;1.70;;
21166;SDS011;10741;52.272;9.580;2022-08-19T12:38:17;2.90;;;1.40;;
21166;SDS011;10741;52.272;9.580;2022-08-19T12:40:46;2.80;;;1.70;;
21166;SDS011;10741;52.272;9.580;2022-08-19T12:43:13;2.73;;;1.60;;
21166;SDS011;10741;52.272;9.580;2022-08-19T12:45:41;1.50;;;1.40;;
21166;SDS011;10741;52.272;9.580;2022-08-19T12:48:08;1.67;;;1.30;;
21166;SDS011;10741;52.272;9.580;2022-08-19T12:50:34;2.77;;;1.50;;
21166;SDS011;10741;52.272;9.580;2022-08-19T12:53:00;1.87;;;1.30;;
21166;SDS011;10741;52.272;9.580;2022-08-19T12:55:26;3.77;;;1.67;;
21166;SDS011;10741;52.272;9.580;2022-08-19T12:57:53;2.93;;;1.20;;
21166;SDS011;10741;52.272;9.580;2022-08-19T13:00:20;2.03;;;1.40;;
21166;SDS011;10741;52.272;9.580;2022-08-19T13:02:48;4.53;;;1.60;;
21166;SDS011;10741;52.272;9.580;2022-08-19T13:05:19;3.00;;;1.37;;
21166;SDS011;10741;52.272;9.580;2022-08-19T13:07:47;1.20;;;1.10;;
21166;SDS011;10741;52.272;9.580;2022-08-19T13:10:15;2.00;;;1.17;;
21166;SDS011;10741;52.272;9.580;2022-08-19T13:12:44;1.70;;;1.10;;
21166;SDS011;10741;52.272;9.580;2022-08-19T13:15:12;3.00;;;1.10;;
21166;SDS011;10741;52.272;9.580;2022-08-19T13:17:38;1.53;;;1.27;;
21166;SDS011;10741;52.272;9.580;2022-08-19T13:20:05;4.07;;;1.23;;
21166;SDS011;10741;52.272;9.580;2022-08-19T13:22:35;3.17;;;0.93;;
21166;SDS011;10741;52.272;9.580;2022-08-19T13:25:02;0.97;;;0.97;;
21166;SDS011;10741;52.272;9.580;2022-08-19T13:27:30;1.07;;;0.80;;
21166;SDS011;10741;52.272;9.580;2022-08-19T13:29:59;3.93;;;1.23;;
21166;SDS011;10741;52.272;9.580;2022-08-19T13:32:44;1.80;;;1.07;;
21166;SDS011;10741;52.272;9.580;2022-08-19T13:35:28;0.83;;;0.80;;
21166;SDS011;10741;52.272;9.580;2022-08-19T13:37:54;1.67;;;0.80;;
21166;SDS011;10741;52.272;9.580;2022-08-19T13:40:24;2.63;;;0.87;;
21166;SDS011;10741;52.272;9.580;2022-08-19T13:42:52;2.90;;;1.00;;
21166;SDS011;10741;52.272;9.580;2022-08-19T13:45:21;37.47;;;3.07;;
21166;SDS011;10741;52.272;9.580;2022-08-19T13:47:49;4.87;;;0.90;;
21166;SDS011;10741;52.272;9.580;2022-08-19T13:50:18;5.73;;;1.23;;
21166;SDS011;10741;52.272;9.580;2022-08-19T13:52:45;1.10;;;0.90;;
21166;SDS011;10741;52.272;9.580;2022-08-19T13:55:12;6.83;;;0.87;;
21166;SDS011;10741;52.272;9.580;2022-08-19T13:57:40;4.00;;;0.80;;
21166;SDS011;10741;52.272;9.580;2022-08-19T14:00:11;3.63;;;0.90;;
21166;SDS011;10741;52.272;9.580;2022-08-19T14:02:40;1.03;;;0.90;;
21166;SDS011;10741;52.272;9.580;2022-08-19T14:05:07;2.53;;;1.00;;
21166;SDS011;10741;52.272;9.580;2022-08-19T14:07:35;2.50;;;0.80;;
21166;SDS011;10741;52.272;9.580;2022-08-19T14:10:01;1.07;;;0.83;;
21166;SDS011;10741;52.272;9.580;2022-08-19T14:12:28;0.80;;;0.80;;
21166;SDS011;10741;52.272;9.580;2022-08-19T14:14:54;2.87;;;0.90;;
21166;SDS011;10741;52.272;9.580;2022-08-19T14:17:20;1.60;;;0.70;;
21166;SDS011;10741;52.272;9.580;2022-08-19T14:19:46;1.37;;;0.93;;
21166;SDS011;10741;52.272;9.580;2022-08-19T14:22:12;2.77;;;0.80;;
21166;SDS011;10741;52.272;9.580;2022-08-19T14:24:38;1.07;;;0.90;;
21166;SDS011;10741;52.272;9.580;2022-08-19T14:27:06;1.50;;;0.80;;
21166;SDS011;10741;52.272;9.580;2022-08-19T14:29:33;4.27;;;1.10;;
21166;SDS011;10741;52.272;9.580;2022-08-19T14:31:59;3.97;;;1.00;;
21166;SDS011;10741;52.272;9.580;2022-08-19T14:34:25;1.27;;;0.80;;
21166;SDS011;10741;52.272;9.580;2022-08-19T14:36:51;2.00;;;0.73;;
21166;SDS011;10741;52.272;9.580;2022-08-19T14:39:18;3.57;;;1.03;;
21166;SDS011;10741;52.272;9.580;2022-08-19T14:41:43;2.30;;;0.80;;
21166;SDS011;10741;52.272;9.580;2022-08-19T14:44:10;1.13;;;0.90;;
21166;SDS011;10741;52.272;9.580;2022-08-19T14:46:37;2.27;;;1.00;;
21166;SDS011;10741;52.272;9.580;2022-08-19T14:49:04;1.00;;;0.80;;
21166;SDS011;10741;52.272;9.580;2022-08-19T14:51:30;7.40;;;1.00;;
21166;SDS011;10741;52.272;9.580;2022-08-19T14:53:56;1.67;;;1.07;;